Time;durP1;ratioP1;P1;durP2;ratioP2;P2;SDS_P1;SDS_P2;PMS_P1;PMS_P2;Temp;Humidity;BMP_temperature;BMP_pressure;BME280_temperature;BME280_humidity;BME280_pressure;Samples;Min_cycle;Max_cycle;Signal;HPM_P1;HPM_P2
2022/08/07 00:00:25;;;;;;;12.43;4.20;;;;;;;13.63;100.00;102501.94;5045810;28;20388;-64
2022/08/07 00:02:50;;;;;;;14.50;4.40;;;;;;;13.48;100.00;102511.41;5042633;28;20451;-62
2022/08/07 00:05:15;;;;;;;16.40;4.97;;;;;;;13.38;100.00;102510.34;5045210;28;20063;-68
2022/08/07 00:07:40;;;;;;;12.32;4.53;;;;;;;13.28;100.00;102510.09;5043825;28;20029;-70
2022/08/07 00:10:06;;;;;;;14.32;4.50;;;;;;;13.24;100.00;102502.06;5043627;28;20365;-69
2022/08/07 00:12:32;;;;;;;13.73;4.50;;;;;;;13.15;100.00;102499.25;5044933;28;20483;-68
2022/08/07 00:14:57;;;;;;;14.48;4.50;;;;;;;13.07;100.00;102503.50;5041328;28;20033;-69
2022/08/07 00:17:22;;;;;;;14.45;4.70;;;;;;;13.02;100.00;102499.88;5045720;28;20118;-70
2022/08/07 00:19:48;;;;;;;14.05;4.47;;;;;;;13.16;100.00;102492.16;5042805;28;20060;-70
2022/08/07 00:22:13;;;;;;;16.17;4.90;;;;;;;13.01;100.00;102496.28;5044438;28;20373;-70
2022/08/07 00:24:39;;;;;;;13.10;4.50;;;;;;;12.90;100.00;102501.41;5043560;28;20025;-70
2022/08/07 00:27:04;;;;;;;14.85;4.65;;;;;;;12.99;100.00;102497.13;5043128;28;20028;-70
2022/08/07 00:29:30;;;;;;;14.48;4.53;;;;;;;12.91;100.00;102495.19;5044617;28;20031;-70
2022/08/07 00:31:58;;;;;;;14.38;4.53;;;;;;;12.89;100.00;102488.97;5041789;28;20120;-69
2022/08/07 00:34:27;;;;;;;12.50;4.30;;;;;;;12.81;100.00;102485.25;5038265;28;20037;-70
2022/08/07 00:36:52;;;;;;;11.98;4.38;;;;;;;12.78;100.00;102486.97;5038098;28;20083;-69
2022/08/07 00:39:18;;;;;;;12.23;4.40;;;;;;;12.70;100.00;102477.09;5044576;28;20029;-67
2022/08/07 00:41:56;;;;;;;15.45;4.80;;;;;;;12.65;100.00;102488.47;5042993;28;20418;-70
2022/08/07 00:44:22;;;;;;;12.95;4.45;;;;;;;12.62;100.00;102481.31;5036334;28;20113;-70
2022/08/07 00:46:48;;;;;;;12.38;4.38;;;;;;;12.59;100.00;102472.41;5044413;28;20031;-60
2022/08/07 00:49:13;;;;;;;13.48;4.43;;;;;;;12.38;100.00;102471.06;5042944;28;20025;-60
2022/08/07 00:51:39;;;;;;;13.60;4.60;;;;;;;12.38;100.00;102479.03;5043047;28;20104;-60
2022/08/07 00:54:04;;;;;;;12.48;4.45;;;;;;;12.24;100.00;102476.03;5043986;28;20100;-60
2022/08/07 00:56:30;;;;;;;13.32;4.47;;;;;;;12.14;100.00;102472.28;5041934;28;20430;-60
2022/08/07 00:58:56;;;;;;;14.50;4.15;;;;;;;12.13;100.00;102470.50;5044765;28;20029;-60
2022/08/07 01:01:22;;;;;;;16.70;4.50;;;;;;;12.19;100.00;102472.41;5035719;28;20037;-62
2022/08/07 01:03:48;;;;;;;15.50;4.57;;;;;;;12.24;100.00;102467.22;5044570;28;20454;-60
2022/08/07 01:06:15;;;;;;;14.55;4.50;;;;;;;12.28;100.00;102461.13;5042345;28;20111;-61
2022/08/07 01:08:40;;;;;;;12.75;4.40;;;;;;;12.19;100.00;102461.81;5043052;28;20092;-60
2022/08/07 01:11:07;;;;;;;12.68;4.10;;;;;;;12.05;100.00;102461.47;5043481;28;20021;-60
2022/08/07 01:13:32;;;;;;;15.60;4.47;;;;;;;11.98;100.00;102459.53;5041714;28;20449;-61
2022/08/07 01:15:58;;;;;;;12.95;4.32;;;;;;;11.99;100.00;102466.63;5044510;28;20249;-62
2022/08/07 01:18:24;;;;;;;13.68;4.45;;;;;;;11.95;100.00;102457.69;5040918;28;20025;-60
2022/08/07 01:21:04;;;;;;;14.23;4.35;;;;;;;11.95;100.00;102454.16;5043967;28;20043;-60
2022/08/07 01:23:30;;;;;;;12.13;4.40;;;;;;;11.88;100.00;102458.34;5038285;28;20472;-61
2022/08/07 01:25:55;;;;;;;14.25;4.60;;;;;;;11.82;100.00;102452.91;5044636;28;20072;-62
2022/08/07 01:28:21;;;;;;;15.05;4.57;;;;;;;11.70;100.00;102450.88;5041060;28;20064;-61
2022/08/07 01:30:48;;;;;;;13.07;4.40;;;;;;;11.59;100.00;102452.34;5043196;28;20028;-60
2022/08/07 01:33:14;;;;;;;14.48;4.32;;;;;;;11.69;100.00;102451.72;5042366;28;20124;-60
2022/08/07 01:35:39;;;;;;;13.25;4.32;;;;;;;11.71;100.00;102446.44;5042800;28;20021;-60
2022/08/07 01:38:06;;;;;;;13.52;4.43;;;;;;;11.71;100.00;102447.38;5043359;28;20086;-61
2022/08/07 01:40:32;;;;;;;15.57;4.65;;;;;;;11.70;100.00;102448.22;5041375;28;20626;-67
2022/08/07 01:42:58;;;;;;;14.98;4.43;;;;;;;11.64;100.00;102442.75;5043917;28;20041;-66
2022/08/07 01:45:25;;;;;;;15.32;4.40;;;;;;;11.60;100.00;102449.72;5040700;28;20365;-66
2022/08/07 01:47:50;;;;;;;13.98;4.40;;;;;;;11.42;100.00;102439.56;5044400;28;20305;-67
2022/08/07 01:50:16;;;;;;;11.95;4.18;;;;;;;11.48;100.00;102439.72;5041398;28;20043;-67
2022/08/07 01:52:44;;;;;;;13.27;4.30;;;;;;;11.51;100.00;102437.13;5042583;28;20091;-67
2022/08/07 01:55:10;;;;;;;12.88;4.22;;;;;;;11.45;100.00;102441.41;5042462;28;20036;-67
2022/08/07 01:57:38;;;;;;;14.77;4.20;;;;;;;11.41;100.00;102440.41;5040916;28;20120;-68
2022/08/07 02:00:07;;;;;;;10.98;4.00;;;;;;;11.34;100.00;102438.44;5043134;28;20024;-67
2022/08/07 02:02:39;;;;;;;14.90;4.78;;;;;;;11.26;100.00;102440.91;5041389;28;20045;-67
2022/08/07 02:05:08;;;;;;;17.50;5.07;;;;;;;11.15;100.00;102437.97;5042939;28;20035;-67
2022/08/07 02:07:42;;;;;;;15.52;4.80;;;;;;;11.16;100.00;102438.88;5037709;28;20033;-67
2022/08/07 02:10:07;;;;;;;12.77;4.57;;;;;;;11.13;100.00;102439.66;5036771;28;20033;-67
2022/08/07 02:12:37;;;;;;;14.77;4.50;;;;;;;11.04;100.00;102444.72;5041388;28;20030;-67
2022/08/07 02:15:04;;;;;;;14.40;4.50;;;;;;;11.08;100.00;102441.31;5043082;28;20108;-67
2022/08/07 02:17:30;;;;;;;16.02;4.80;;;;;;;11.11;100.00;102441.38;5040199;28;20045;-67
2022/08/07 02:19:59;;;;;;;14.95;4.90;;;;;;;11.09;100.00;102435.16;5040701;28;20017;-65
2022/08/07 02:22:26;;;;;;;15.75;4.70;;;;;;;11.06;100.00;102428.88;5043782;28;20111;-66
2022/08/07 02:24:54;;;;;;;13.48;4.70;;;;;;;11.10;100.00;102429.00;5036353;28;20030;-66
2022/08/07 02:27:22;;;;;;;16.60;4.88;;;;;;;11.08;100.00;102433.38;5043654;28;20426;-66
2022/08/07 02:29:50;;;;;;;14.10;4.70;;;;;;;10.98;100.00;102429.56;5042757;28;20104;-63
2022/08/07 02:32:18;;;;;;;16.85;4.78;;;;;;;10.98;100.00;102428.69;5046597;28;20037;-67
2022/08/07 02:34:45;;;;;;;16.33;5.22;;;;;;;11.00;100.00;102421.66;5045340;28;20051;-66
2022/08/07 02:37:11;;;;;;;13.40;4.55;;;;;;;10.97;100.00;102422.47;5045988;28;20079;-65
2022/08/07 02:39:41;;;;;;;14.18;4.80;;;;;;;10.84;100.00;102432.69;5045835;28;20025;-67
2022/08/07 02:42:06;;;;;;;13.98;4.60;;;;;;;10.75;100.00;102426.25;5045234;28;20049;-66
2022/08/07 02:44:34;;;;;;;13.60;4.82;;;;;;;10.80;100.00;102429.97;5046378;28;20029;-66
2022/08/07 02:47:01;;;;;;;15.52;4.85;;;;;;;10.69;100.00;102434.03;5044403;28;20052;-64
2022/08/07 02:49:28;;;;;;;16.40;5.57;;;;;;;10.60;100.00;102428.44;5047286;28;20492;-66
2022/08/07 02:51:56;;;;;;;17.33;5.30;;;;;;;10.60;100.00;102425.81;5043816;28;20029;-64
2022/08/07 02:54:24;;;;;;;16.13;5.20;;;;;;;10.59;100.00;102419.63;5039845;28;20380;-66
2022/08/07 02:56:52;;;;;;;15.20;5.05;;;;;;;10.55;100.00;102417.75;5047049;28;20032;-67
2022/08/07 02:59:22;;;;;;;15.25;4.78;;;;;;;10.58;100.00;102422.25;5044456;28;20029;-66
2022/08/07 03:01:47;;;;;;;15.32;5.10;;;;;;;10.51;100.00;102414.97;5046367;28;20036;-67
2022/08/07 03:04:13;;;;;;;17.40;5.47;;;;;;;10.50;100.00;102416.72;5044627;28;20025;-67
2022/08/07 03:06:43;;;;;;;15.77;5.25;;;;;;;10.46;100.00;102412.19;5045217;28;20040;-66
2022/08/07 03:09:09;;;;;;;16.17;5.30;;;;;;;10.46;100.00;102418.38;5045046;28;20065;-66
2022/08/07 03:11:37;;;;;;;15.30;5.10;;;;;;;10.46;100.00;102414.84;5044239;28;20107;-67
2022/08/07 03:14:04;;;;;;;16.00;5.30;;;;;;;10.37;100.00;102414.53;5046005;28;20029;-65
2022/08/07 03:16:31;;;;;;;14.18;5.03;;;;;;;10.48;100.00;102420.19;5043606;28;20018;-66
2022/08/07 03:18:58;;;;;;;16.60;5.20;;;;;;;10.50;100.00;102415.81;5046706;28;20028;-67
2022/08/07 03:21:25;;;;;;;15.70;5.00;;;;;;;10.39;100.00;102418.16;5037808;28;20025;-66
2022/08/07 03:23:54;;;;;;;13.80;4.70;;;;;;;10.36;100.00;102426.00;5040926;28;20112;-65
2022/08/07 03:26:23;;;;;;;14.40;5.10;;;;;;;10.23;100.00;102420.28;5040935;28;20112;-64
2022/08/07 03:28:49;;;;;;;17.15;5.70;;;;;;;10.19;100.00;102418.38;5044323;28;20102;-65
2022/08/07 03:31:18;;;;;;;17.85;5.28;;;;;;;10.11;100.00;102422.56;5040464;28;20479;-66
2022/08/07 03:33:49;;;;;;;14.90;4.95;;;;;;;10.15;100.00;102426.19;5043832;28;20052;-66
2022/08/07 03:36:17;;;;;;;17.10;5.55;;;;;;;10.11;100.00;102420.81;5045153;28;20025;-65
2022/08/07 03:38:45;;;;;;;16.77;5.40;;;;;;;10.22;100.00;102418.50;5043783;28;20026;-64
2022/08/07 03:41:11;;;;;;;15.63;5.30;;;;;;;10.17;100.00;102413.94;5045019;28;20043;-62
2022/08/07 03:43:37;;;;;;;17.27;6.13;;;;;;;10.12;100.00;102413.78;5042880;28;20433;-64
2022/08/07 03:46:05;;;;;;;16.63;5.50;;;;;;;10.07;100.00;102410.97;5039100;28;20045;-61
2022/08/07 03:48:34;;;;;;;15.20;5.43;;;;;;;10.00;100.00;102419.56;5045793;28;20044;-62
2022/08/07 03:51:01;;;;;;;16.40;5.40;;;;;;;10.01;100.00;102418.72;5043025;28;20033;-64
2022/08/07 03:53:27;;;;;;;15.35;5.45;;;;;;;10.01;100.00;102412.56;5045406;28;20072;-61
2022/08/07 03:55:55;;;;;;;17.25;5.70;;;;;;;10.00;100.00;102416.03;5042989;28;20024;-64
2022/08/07 03:58:22;;;;;;;17.60;5.50;;;;;;;10.01;100.00;102428.41;5037707;28;20401;-62
2022/08/07 04:00:48;;;;;;;16.90;5.65;;;;;;;10.15;100.00;102426.19;5041116;28;20120;-61
2022/08/07 04:03:15;;;;;;;17.23;5.78;;;;;;;10.02;100.00;102425.81;5045525;28;20021;-61
2022/08/07 04:05:41;;;;;;;16.52;5.72;;;;;;;10.12;100.00;102422.59;5038559;28;20038;-65
2022/08/07 04:08:10;;;;;;;15.45;5.50;;;;;;;10.04;100.00;102434.66;5043220;28;20472;-61
2022/08/07 04:10:36;;;;;;;17.55;5.68;;;;;;;9.98;100.00;102444.16;5044668;28;20052;-65
2022/08/07 04:13:02;;;;;;;16.95;5.50;;;;;;;9.89;100.00;102437.72;5043681;28;20476;-60
2022/08/07 04:15:28;;;;;;;16.30;5.78;;;;;;;9.85;100.00;102427.00;5043494;28;20102;-62
2022/08/07 04:17:53;;;;;;;16.23;5.68;;;;;;;9.84;100.00;102435.78;5044613;28;20535;-60
2022/08/07 04:20:19;;;;;;;15.82;5.43;;;;;;;9.80;100.00;102436.50;5042352;28;20116;-61
2022/08/07 04:22:45;;;;;;;17.27;5.88;;;;;;;9.82;100.00;102442.75;5045850;28;20022;-62
2022/08/07 04:25:11;;;;;;;17.48;6.10;;;;;;;9.82;100.00;102440.13;5042066;28;20029;-61
2022/08/07 04:27:36;;;;;;;18.38;6.30;;;;;;;9.82;100.00;102438.38;5044481;28;20024;-60
2022/08/07 04:30:03;;;;;;;17.35;5.75;;;;;;;9.77;100.00;102440.84;5043359;28;20029;-70
2022/08/07 04:32:30;;;;;;;18.23;6.32;;;;;;;9.75;100.00;102445.19;5042880;28;20041;-68
2022/08/07 04:34:55;;;;;;;17.35;5.95;;;;;;;9.79;100.00;102443.56;5044077;28;20083;-70
2022/08/07 04:37:20;;;;;;;17.77;6.68;;;;;;;9.82;100.00;102443.66;5042143;28;20021;-69
2022/08/07 04:39:46;;;;;;;18.48;6.50;;;;;;;9.87;100.00;102446.44;5044865;28;20025;-69
2022/08/07 04:42:11;;;;;;;18.10;6.55;;;;;;;9.96;100.00;102446.75;5041895;28;20045;-68
2022/08/07 04:44:38;;;;;;;19.05;6.38;;;;;;;10.00;100.00;102440.69;5044136;28;20064;-69
2022/08/07 04:47:17;;;;;;;19.48;6.80;;;;;;;10.08;100.00;102441.84;5043144;28;20420;-68
2022/08/07 04:49:59;;;;;;;18.75;6.47;;;;;;;10.02;100.00;102438.09;5044613;28;20029;-69
2022/08/07 04:52:31;;;;;;;18.80;6.40;;;;;;;10.01;100.00;102449.53;5039023;28;20033;-70
2022/08/07 04:55:02;;;;;;;18.53;6.43;;;;;;;10.05;100.00;102446.16;5043871;28;20084;-70
2022/08/07 04:57:53;;;;;;;19.08;6.40;;;;;;;10.11;100.00;102449.88;5035716;28;20106;-69
2022/08/07 05:00:33;;;;;;;20.65;7.20;;;;;;;10.20;100.00;102451.03;5041405;28;20043;-69
2022/08/07 05:03:33;;;;;;;18.60;6.88;;;;;;;10.21;100.00;102448.41;5036533;28;20078;-70
2022/08/07 05:06:06;;;;;;;18.25;6.93;;;;;;;10.33;100.00;102449.66;5040584;28;20024;-69
2022/08/07 05:08:40;;;;;;;19.25;7.20;;;;;;;10.48;100.00;102446.63;5041848;28;20021;-70
2022/08/07 05:11:18;;;;;;;20.00;7.75;;;;;;;10.66;100.00;102446.25;5043118;28;20539;-70
2022/08/07 05:13:52;;;;;;;20.20;7.50;;;;;;;10.84;100.00;102451.19;5043282;28;20083;-70
2022/08/07 05:16:21;;;;;;;19.10;7.63;;;;;;;11.00;100.00;102453.41;5041532;28;20029;-71
2022/08/07 05:18:57;;;;;;;21.20;7.68;;;;;;;11.04;100.00;102450.00;5043891;28;20328;-70
2022/08/07 05:21:26;;;;;;;21.77;8.05;;;;;;;11.17;100.00;102453.91;5037268;28;20021;-70
2022/08/07 05:24:05;;;;;;;19.40;7.93;;;;;;;11.33;100.00;102463.16;5040337;28;20025;-70
2022/08/07 05:26:32;;;;;;;20.00;8.25;;;;;;;11.42;100.00;102462.50;5033153;28;20037;-70
2022/08/07 05:29:00;;;;;;;20.05;8.18;;;;;;;11.48;100.00;102458.25;5043920;28;20047;-69
2022/08/07 05:31:32;;;;;;;22.45;8.68;;;;;;;11.40;100.00;102459.81;5040358;28;20539;-70
2022/08/07 05:33:58;;;;;;;21.67;8.93;;;;;;;11.54;100.00;102461.94;5040905;28;20354;-70
2022/08/07 05:36:26;;;;;;;20.25;8.73;;;;;;;11.63;100.00;102465.69;5043403;28;20017;-70
2022/08/07 05:38:53;;;;;;;22.60;9.15;;;;;;;11.77;100.00;102466.06;5041954;28;20120;-70
2022/08/07 05:41:20;;;;;;;23.17;9.77;;;;;;;11.86;100.00;102466.28;5042280;28;20563;-71
2022/08/07 05:43:47;;;;;;;21.10;9.40;;;;;;;11.93;100.00;102467.38;5042547;28;20033;-70
2022/08/07 05:46:15;;;;;;;21.50;9.00;;;;;;;11.99;100.00;102469.28;5041762;28;20025;-64
2022/08/07 05:48:41;;;;;;;22.88;10.13;;;;;;;12.03;100.00;102463.19;5043279;28;20040;-60
2022/08/07 05:51:08;;;;;;;21.95;10.10;;;;;;;12.18;100.00;102460.88;5040595;28;20026;-61
2022/08/07 05:53:34;;;;;;;21.33;9.85;;;;;;;12.31;100.00;102463.84;5044161;28;20041;-62
2022/08/07 05:56:01;;;;;;;21.55;10.13;;;;;;;12.38;100.00;102473.72;5040858;28;20075;-61
2022/08/07 05:58:27;;;;;;;21.85;9.77;;;;;;;12.50;100.00;102470.44;5043333;28;20029;-60
2022/08/07 06:00:54;;;;;;;21.98;10.25;;;;;;;12.58;100.00;102473.25;5041673;28;20029;-61
2022/08/07 06:03:23;;;;;;;21.30;10.35;;;;;;;12.66;100.00;102467.25;5043763;28;20018;-61
2022/08/07 06:05:49;;;;;;;22.58;10.23;;;;;;;12.75;100.00;102481.59;5046239;28;20386;-62
2022/08/07 06:08:15;;;;;;;22.73;10.60;;;;;;;12.81;100.00;102477.28;5045951;28;20053;-61
2022/08/07 06:10:41;;;;;;;23.27;10.52;;;;;;;12.90;100.00;102476.59;5047078;28;20032;-64
2022/08/07 06:13:07;;;;;;;23.65;10.50;;;;;;;12.93;100.00;102484.66;5044637;28;20025;-62
2022/08/07 06:15:34;;;;;;;22.15;10.30;;;;;;;12.98;100.00;102477.66;5048157;28;20025;-62
2022/08/07 06:18:01;;;;;;;22.13;10.73;;;;;;;13.02;100.00;102475.97;5044376;28;20025;-61
2022/08/07 06:20:28;;;;;;;22.10;10.70;;;;;;;13.13;100.00;102478.81;5047387;28;20033;-60
2022/08/07 06:22:55;;;;;;;22.77;10.98;;;;;;;13.15;100.00;102483.31;5045127;28;20443;-61
2022/08/07 06:25:21;;;;;;;23.08;11.40;;;;;;;13.24;100.00;102488.78;5046314;28;20025;-61
2022/08/07 06:27:46;;;;;;;23.35;11.57;;;;;;;13.29;100.00;102478.25;5046141;28;20364;-61
2022/08/07 06:30:12;;;;;;;22.48;11.27;;;;;;;13.37;100.00;102473.13;5045166;28;20025;-67
2022/08/07 06:32:37;;;;;;;23.67;12.05;;;;;;;13.46;100.00;102475.06;5047291;28;20027;-66
2022/08/07 06:35:03;;;;;;;24.45;12.45;;;;;;;13.50;100.00;102479.53;5044187;28;20021;-67
2022/08/07 06:37:28;;;;;;;23.65;12.13;;;;;;;13.55;100.00;102473.44;5047062;28;20029;-65
2022/08/07 06:39:53;;;;;;;22.55;11.50;;;;;;;13.70;100.00;102488.78;5045071;28;20024;-67
2022/08/07 06:42:38;;;;;;;22.60;11.52;;;;;;;13.77;100.00;102484.47;5045455;28;20500;-63
2022/08/07 06:45:08;;;;;;;23.88;11.82;;;;;;;13.88;100.00;102482.88;5040294;28;20029;-65
2022/08/07 06:47:34;;;;;;;23.00;11.30;;;;;;;13.92;100.00;102479.41;5040216;28;20022;-67
2022/08/07 06:49:59;;;;;;;23.35;11.48;;;;;;;14.01;100.00;102475.09;5046895;28;20029;-65
2022/08/07 06:52:31;;;;;;;23.17;12.15;;;;;;;14.06;100.00;102484.06;5044322;28;20032;-66
2022/08/07 06:54:59;;;;;;;23.02;12.00;;;;;;;14.14;100.00;102474.44;5045368;28;20481;-66
2022/08/07 06:57:28;;;;;;;23.10;11.88;;;;;;;14.22;100.00;102474.56;5044470;28;20116;-67
2022/08/07 06:59:54;;;;;;;23.83;11.60;;;;;;;14.29;100.00;102468.44;5046208;28;20026;-65
2022/08/07 07:02:21;;;;;;;22.60;11.60;;;;;;;14.33;100.00;102456.06;5045538;28;20094;-63
2022/08/07 07:04:47;;;;;;;22.88;11.50;;;;;;;14.37;100.00;102460.56;5044779;28;20373;-66
2022/08/07 07:07:13;;;;;;;22.15;10.93;;;;;;;14.45;100.00;102465.13;5045907;28;20029;-65
2022/08/07 07:09:47;;;;;;;22.45;11.00;;;;;;;14.53;100.00;102467.00;5043921;28;20090;-65
2022/08/07 07:12:12;;;;;;;22.58;11.00;;;;;;;14.60;100.00;102464.44;5041282;28;20427;-70
2022/08/07 07:15:02;;;;;;;23.13;11.02;;;;;;;14.72;100.00;102465.50;5037227;28;20037;-69
2022/08/07 07:17:30;;;;;;;23.23;10.77;;;;;;;14.81;100.00;102473.63;5042271;28;20116;-70
2022/08/07 07:19:59;;;;;;;23.80;10.98;;;;;;;14.90;100.00;102473.72;5043188;28;20461;-70
2022/08/07 07:22:27;;;;;;;22.13;11.48;;;;;;;14.96;100.00;102467.59;5044550;28;20025;-70
2022/08/07 07:24:53;;;;;;;22.98;11.20;;;;;;;15.06;100.00;102473.94;5045883;28;20025;-70
2022/08/07 07:27:23;;;;;;;23.40;11.23;;;;;;;15.14;100.00;102473.16;5043370;28;20036;-70
2022/08/07 07:29:53;;;;;;;23.10;11.15;;;;;;;15.25;100.00;102465.25;5046363;28;20032;-69
2022/08/07 07:32:21;;;;;;;22.88;10.80;;;;;;;15.34;100.00;102476.00;5042947;28;20178;-70
2022/08/07 07:34:54;;;;;;;21.40;10.50;;;;;;;15.44;100.00;102466.34;5046640;28;20483;-70
2022/08/07 07:37:23;;;;;;;22.33;11.32;;;;;;;15.48;100.00;102456.63;5040446;28;20030;-70
2022/08/07 07:39:52;;;;;;;21.60;10.32;;;;;;;15.59;100.00;102459.38;5046815;28;20484;-70
2022/08/07 07:42:22;;;;;;;22.15;10.30;;;;;;;15.71;100.00;102458.56;5042767;28;20050;-69
2022/08/07 07:44:48;;;;;;;22.10;10.35;;;;;;;15.77;100.00;102445.28;5046285;28;20029;-70
2022/08/07 07:47:15;;;;;;;22.38;10.10;;;;;;;15.84;100.00;102452.50;5039125;28;20026;-70
2022/08/07 07:49:42;;;;;;;24.67;11.02;;;;;;;15.95;100.00;102448.13;5045936;28;20032;-70
2022/08/07 07:52:09;;;;;;;22.83;10.27;;;;;;;16.01;100.00;102447.28;5043167;28;20029;-70
2022/08/07 07:54:36;;;;;;;23.48;11.20;;;;;;;16.09;100.00;102448.25;5045143;28;20033;-71
2022/08/07 07:57:04;;;;;;;21.55;10.43;;;;;;;16.18;100.00;102445.63;5044069;28;20493;-70
2022/08/07 07:59:30;;;;;;;23.55;10.40;;;;;;;16.31;100.00;102443.03;5044232;28;20064;-65
2022/08/07 08:01:56;;;;;;;22.15;10.25;;;;;;;16.44;100.00;102446.66;5045240;28;20107;-64
2022/08/07 08:04:24;;;;;;;22.67;10.38;;;;;;;16.52;100.00;102447.59;5042839;28;20105;-61
2022/08/07 08:06:51;;;;;;;22.67;10.20;;;;;;;16.63;100.00;102448.56;5045692;28;20059;-63
2022/08/07 08:09:19;;;;;;;21.73;9.48;;;;;;;16.77;100.00;102453.06;5042567;28;20037;-62
2022/08/07 08:11:45;;;;;;;21.85;8.88;;;;;;;16.86;100.00;102445.97;5037207;28;20030;-62
2022/08/07 08:14:10;;;;;;;19.92;8.40;;;;;;;17.03;100.00;102445.16;5045267;28;20032;-62
2022/08/07 08:16:42;;;;;;;20.90;8.48;;;;;;;17.17;100.00;102455.88;5043521;28;20059;-65
2022/08/07 08:19:12;;;;;;;20.97;8.30;;;;;;;17.33;100.00;102452.38;5044731;28;20032;-64
2022/08/07 08:27:14;;;;;;;20.65;8.15;;;;;;;17.73;100.00;102452.38;5042341;28;20041;-65
2022/08/07 08:29:55;;;;;;;20.83;8.20;;;;;;;18.45;100.00;102451.41;5045078;28;20413;-65
2022/08/07 08:32:24;;;;;;;20.67;7.72;;;;;;;19.52;98.05;102446.38;5038946;28;20566;-64
2022/08/07 08:34:51;;;;;;;19.15;6.47;;;;;;;20.69;86.20;102462.28;5045245;28;20059;-65
2022/08/07 08:37:18;;;;;;;19.15;6.80;;;;;;;21.57;81.38;102459.28;5042060;28;20030;-65
2022/08/07 08:39:44;;;;;;;19.20;6.97;;;;;;;22.04;77.61;102456.66;5037881;28;20037;-65
2022/08/07 08:42:22;;;;;;;18.15;6.28;;;;;;;22.81;77.98;102457.84;5044615;28;20069;-64
2022/08/07 08:45:06;;;;;;;17.92;5.90;;;;;;;22.87;70.03;102454.16;5038710;28;20029;-67
2022/08/07 08:48:09;;;;;;;16.80;5.85;;;;;;;22.35;74.75;102461.50;5041931;28;20060;-63
2022/08/07 08:51:15;;;;;;;17.33;5.60;;;;;;;21.70;76.56;102461.78;5042881;28;20034;-66
2022/08/07 08:53:56;;;;;;;15.43;5.72;;;;;;;21.96;74.86;102455.03;5044148;28;20171;-62
2022/08/07 08:56:42;;;;;;;18.88;5.55;;;;;;;22.54;73.31;102455.75;5039059;28;20392;-66
2022/08/07 08:59:16;;;;;;;16.13;5.00;;;;;;;23.17;65.47;102453.53;5042254;28;20380;-64
2022/08/07 09:02:06;;;;;;;16.95;5.35;;;;;;;23.65;65.43;102456.84;5044518;28;20483;-63
2022/08/07 09:04:50;;;;;;;17.55;5.30;;;;;;;23.51;67.66;102456.31;5041413;28;20111;-65
2022/08/07 09:07:37;;;;;;;15.52;5.13;;;;;;;22.88;65.43;102445.16;5037608;28;20396;-65
2022/08/07 09:10:26;;;;;;;16.40;5.05;;;;;;;22.44;70.85;102449.66;5041605;28;20479;-66
2022/08/07 09:13:01;;;;;;;17.85;5.32;;;;;;;22.01;68.76;102445.09;5031235;28;20029;-65
2022/08/07 09:15:38;;;;;;;15.68;5.15;;;;;;;21.94;68.10;102442.50;5042333;28;20021;-67
2022/08/07 09:18:21;;;;;;;17.10;5.07;;;;;;;21.86;69.59;102446.25;5038965;28;20543;-64
2022/08/07 09:21:18;;;;;;;15.88;5.30;;;;;;;22.02;71.12;102442.34;5042780;28;20025;-67
2022/08/07 09:24:01;;;;;;;16.65;5.22;;;;;;;22.28;68.00;102447.25;5041904;28;20033;-65
2022/08/07 09:26:32;;;;;;;17.73;5.57;;;;;;;22.83;64.35;102440.78;5037746;28;20026;-66
2022/08/07 09:29:52;;;;;;;16.98;5.50;;;;;;;23.67;62.56;102436.09;5037435;28;20110;-65
2022/08/07 09:32:39;;;;;;;15.40;5.20;;;;;;;24.73;52.26;102435.94;5001733;28;20042;-66
2022/08/07 09:35:19;;;;;;;16.10;4.90;;;;;;;25.30;39.19;102424.22;4997375;28;20396;-64
2022/08/07 09:37:53;;;;;;;14.88;4.30;;;;;;;26.43;37.78;102431.16;4983162;28;20136;-68
2022/08/07 09:40:37;;;;;;;14.20;4.50;;;;;;;27.50;37.05;102432.44;5001598;28;20100;-68
2022/08/07 09:43:27;;;;;;;14.43;4.50;;;;;;;28.14;36.42;102436.94;4999639;28;20089;-68
2022/08/07 09:46:35;;;;;;;13.50;4.18;;;;;;;28.84;34.36;102430.06;4999372;28;20036;-66
2022/08/07 09:49:06;;;;;;;12.45;4.30;;;;;;;29.09;31.93;102428.88;4996242;28;20054;-68
2022/08/07 09:51:49;;;;;;;13.50;4.05;;;;;;;29.61;32.20;102424.53;5002177;28;20393;-66
2022/08/07 09:54:21;;;;;;;13.57;3.88;;;;;;;29.85;29.72;102422.38;5001279;28;20118;-68
2022/08/07 09:56:55;;;;;;;14.38;3.75;;;;;;;30.47;29.40;102419.97;5000084;28;20026;-66
2022/08/07 09:59:42;;;;;;;10.35;3.80;;;;;;;31.03;27.58;102411.41;5002105;28;20034;-66
2022/08/07 10:02:45;;;;;;;9.15;3.42;;;;;;;31.54;28.39;102411.13;4998259;28;20464;-68
2022/08/07 10:05:22;;;;;;;11.55;3.10;;;;;;;31.58;26.37;102408.16;4998705;28;20034;-68
2022/08/07 10:08:14;;;;;;;11.35;3.17;;;;;;;31.91;26.75;102398.88;5024952;28;20076;-67
2022/08/07 10:10:58;;;;;;;9.18;2.92;;;;;;;32.48;25.92;102398.03;5040180;28;20376;-68
2022/08/07 10:13:32;;;;;;;10.80;3.45;;;;;;;33.06;25.28;102392.47;5040524;28;20518;-69
2022/08/07 10:16:27;;;;;;;11.43;3.60;;;;;;;33.01;23.48;102390.03;5036797;28;20387;-68
2022/08/07 10:19:31;;;;;;;12.10;3.47;;;;;;;34.05;25.39;102400.28;5043378;28;20112;-67
2022/08/07 10:22:24;;;;;;;11.45;3.70;;;;;;;34.45;24.36;102398.41;5036827;28;20025;-68
2022/08/07 10:25:15;;;;;;;13.32;3.75;;;;;;;34.68;24.43;102394.84;5042921;28;20035;-69
2022/08/07 10:28:09;;;;;;;11.38;3.60;;;;;;;34.74;24.06;102388.00;5040346;28;20032;-69
2022/08/07 10:31:02;;;;;;;10.65;3.30;;;;;;;34.58;23.73;102388.28;5038066;28;20029;-68
2022/08/07 10:33:45;;;;;;;11.60;3.80;;;;;;;34.15;22.82;102391.38;5036651;28;20032;-69
2022/08/07 10:36:11;;;;;;;11.77;4.07;;;;;;;32.72;23.26;102383.75;5040364;28;20421;-69
2022/08/07 10:38:47;;;;;;;13.83;3.83;;;;;;;33.83;23.12;102391.81;5042965;28;20017;-68
2022/08/07 10:41:28;;;;;;;13.48;4.13;;;;;;;34.32;23.33;102382.81;5041921;28;20046;-69
2022/08/07 10:44:18;;;;;;;11.80;3.50;;;;;;;34.89;22.40;102375.00;5040589;28;20025;-69
2022/08/07 10:47:04;;;;;;;8.68;3.25;;;;;;;34.94;22.58;102370.06;5041079;28;20053;-69
2022/08/07 10:49:57;;;;;;;12.98;3.55;;;;;;;35.78;22.14;102379.13;5037048;28;20029;-69
2022/08/07 10:52:54;;;;;;;10.10;3.22;;;;;;;35.69;21.22;102370.75;5047133;28;20035;-68
2022/08/07 10:55:25;;;;;;;12.25;3.15;;;;;;;35.77;20.56;102366.38;5045724;28;20036;-68
2022/08/07 10:58:16;;;;;;;10.95;3.10;;;;;;;35.80;21.08;102367.16;5044273;28;20468;-69
2022/08/07 11:01:15;;;;;;;7.75;2.90;;;;;;;36.46;21.20;102367.34;5043809;28;20030;-68
2022/08/07 11:03:58;;;;;;;8.98;3.03;;;;;;;35.93;21.14;102354.19;5043045;28;20025;-69
2022/08/07 11:06:44;;;;;;;8.30;3.22;;;;;;;35.15;21.51;102347.44;5043898;28;20023;-69
2022/08/07 11:09:18;;;;;;;9.15;3.00;;;;;;;34.97;20.83;102353.34;5042729;28;20025;-69
2022/08/07 11:12:02;;;;;;;9.02;3.00;;;;;;;36.13;21.19;102349.81;5045079;28;20545;-69
2022/08/07 11:14:47;;;;;;;7.30;2.85;;;;;;;36.34;19.95;102338.94;5039858;28;20047;-67
2022/08/07 11:17:32;;;;;;;7.00;2.67;;;;;;;36.07;18.94;102342.94;5043931;28;20036;-67
2022/08/07 11:20:04;;;;;;;7.35;2.83;;;;;;;35.32;19.68;102338.78;5039837;28;20443;-67
2022/08/07 11:22:34;;;;;;;8.77;3.00;;;;;;;34.69;19.60;102338.03;5040037;28;20033;-64
2022/08/07 11:25:17;;;;;;;11.02;3.20;;;;;;;34.42;19.92;102327.28;5039827;28;20120;-62
2022/08/07 11:28:07;;;;;;;9.15;2.80;;;;;;;34.99;19.14;102332.13;5043329;28;20076;-66
2022/08/07 11:30:55;;;;;;;12.00;3.30;;;;;;;35.43;19.36;102327.84;5040370;28;20057;-67
2022/08/07 11:33:41;;;;;;;8.38;3.40;;;;;;;35.06;19.20;102322.41;5043545;28;20030;-66
2022/08/07 11:36:12;;;;;;;9.60;3.10;;;;;;;35.40;19.02;102319.84;5041234;28;20026;-65